createdAt,value
2023-01-18T00:02:29.886Z,12.6
2023-01-18T00:07:52.363Z,12.7
2023-01-18T00:12:59.040Z,12.3
2023-01-18T00:18:22.117Z,12.6
2023-01-18T00:23:44.919Z,12.9
2023-01-18T00:29:07.266Z,13
2023-01-18T00:34:30.726Z,13.1
2023-01-18T00:39:40.980Z,13
2023-01-18T00:45:03.583Z,12.9
2023-01-18T00:50:26.739Z,13.1
2023-01-18T00:55:34.262Z,13
2023-01-18T01:05:48.890Z,13.1
2023-01-18T01:11:11.268Z,13.3
2023-01-18T01:16:33.298Z,13.2
2023-01-18T01:21:56.421Z,13.1
2023-01-18T01:27:03.891Z,13.3
2023-01-18T01:32:10.619Z,13.2
2023-01-18T01:37:32.971Z,13.2
2023-01-18T01:42:24.633Z,13.3
2023-01-18T01:47:47.495Z,13.1
2023-01-18T01:53:09.047Z,12.9
2023-01-18T01:58:31.377Z,13.2
2023-01-18T02:03:54.154Z,13.4
2023-01-18T02:09:16.605Z,13.4
2023-01-18T02:14:38.751Z,13.3
2023-01-18T02:20:01.273Z,13.3
2023-01-18T02:25:23.739Z,13.3
2023-01-18T02:30:30.786Z,13.1
2023-01-18T02:35:54.077Z,13.3
2023-01-18T02:41:16.030Z,13.1
2023-01-18T02:46:42.199Z,13.1
2023-01-18T02:52:03.937Z,13.1
2023-01-18T02:57:26.410Z,13.2
2023-01-18T03:02:49.181Z,13
2023-01-18T03:08:12.110Z,13.2
2023-01-18T03:13:18.233Z,13.1
2023-01-18T03:18:10.296Z,12.9
2023-01-18T03:23:18.459Z,13
2023-01-18T03:28:25.292Z,13.1
2023-01-18T03:33:32.658Z,13.1
2023-01-18T03:38:55.317Z,13.4
2023-01-18T03:44:18.339Z,13.3
2023-01-18T03:49:25.604Z,13.1
2023-01-18T03:54:32.771Z,13.1
2023-01-18T03:59:54.965Z,13.3
2023-01-18T04:05:18.521Z,13.5
2023-01-18T04:10:40.885Z,13.4
2023-01-18T04:16:02.743Z,13.4
2023-01-18T04:21:25.151Z,13.4
2023-01-18T04:26:46.337Z,13.3
2023-01-18T04:31:38.936Z,13.4
2023-01-18T04:36:46.970Z,13.4
2023-01-18T04:42:09.314Z,13.3
2023-01-18T04:47:17.243Z,13.4
2023-01-18T04:52:39.652Z,13.1
2023-01-18T04:58:02.602Z,13.3
2023-01-18T05:03:26.259Z,13.5
2023-01-18T05:08:48.753Z,13.4
2023-01-18T05:14:11.368Z,13.5
2023-01-18T05:19:34.038Z,13.9
2023-01-18T05:24:57.043Z,13.9
2023-01-18T05:30:22.332Z,13.8
2023-01-18T05:35:44.771Z,13.8
2023-01-18T05:41:07.845Z,13.8
2023-01-18T05:46:17.555Z,13.8
2023-01-18T05:51:42.533Z,13.8
2023-01-18T05:57:04.887Z,13.8
2023-01-18T06:07:35.316Z,13.8
2023-01-18T06:12:42.612Z,14
2023-01-18T06:17:52.614Z,13.9
2023-01-18T06:23:17.852Z,13.8
2023-01-18T06:28:40.542Z,13.9
2023-01-18T06:34:03.561Z,13.8
2023-01-18T06:39:25.662Z,13.7
2023-01-18T06:44:49.307Z,13.7
2023-01-18T06:50:12.420Z,13.8
2023-01-18T06:55:38.501Z,14.1
2023-01-18T07:01:01.356Z,14.1
2023-01-18T07:06:26.062Z,14.2
2023-01-18T07:11:33.082Z,14.3
2023-01-18T07:17:08.471Z,14.3
2023-01-18T07:22:31.533Z,14.4
2023-01-18T07:27:53.747Z,14.4
2023-01-18T07:33:17.842Z,14.6
2023-01-18T07:38:43.006Z,14.7
2023-01-18T07:44:08.292Z,14.7
2023-01-18T07:49:30.963Z,14.8
2023-01-18T07:54:53.758Z,14.8
2023-01-18T08:00:16.219Z,14.9
2023-01-18T08:05:40.792Z,15.1
2023-01-18T08:11:04.747Z,15.3
2023-01-18T08:16:31.015Z,15.4
2023-01-18T08:21:53.731Z,15.3
2023-01-18T08:27:16.633Z,15.3
2023-01-18T08:32:39.410Z,15.3
2023-01-18T08:38:02.982Z,15.3
2023-01-18T08:43:25.628Z,15.3
2023-01-18T08:48:48.387Z,15.6
2023-01-18T08:54:11.569Z,15.3
2023-01-18T08:59:19.439Z,15.6
2023-01-18T09:04:45.534Z,15.4
2023-01-18T09:10:08.799Z,15.4
2023-01-18T09:15:45.187Z,15.5
2023-01-18T09:21:09.694Z,15.4
2023-01-18T09:26:32.460Z,15.4
2023-01-18T09:31:55.595Z,15.6
2023-01-18T09:37:29.505Z,15.4
2023-01-18T09:43:01.460Z,15.7
2023-01-18T09:48:23.757Z,15.5
2023-01-18T09:53:45.784Z,15.4
2023-01-18T09:59:09.169Z,15.5
2023-01-18T10:04:17.047Z,15.9
2023-01-18T10:09:39.671Z,15.8
2023-01-18T10:15:03.461Z,16
2023-01-18T10:20:26.255Z,16
2023-01-18T10:25:48.850Z,15.9
2023-01-18T10:31:11.626Z,16
2023-01-18T10:36:34.293Z,16.3
2023-01-18T10:41:42.045Z,16
2023-01-18T10:47:06.210Z,16.3
2023-01-18T10:52:28.637Z,16
2023-01-18T10:57:51.745Z,16.3
2023-01-18T11:03:16.244Z,16.2
2023-01-18T11:08:38.828Z,16.3
2023-01-18T11:14:01.314Z,16.8
2023-01-18T11:19:25.632Z,16.6
2023-01-18T11:24:34.572Z,16.3
2023-01-18T11:29:59.559Z,16.3
2023-01-18T11:35:25.299Z,16.2
2023-01-18T11:40:47.208Z,16.6
2023-01-18T11:46:09.922Z,16.4
2023-01-18T11:51:49.319Z,16.6
2023-01-18T11:56:55.936Z,16.6
2023-01-18T12:02:20.369Z,17.1
2023-01-18T12:07:46.527Z,16.7
2023-01-18T12:13:25.214Z,17.3
2023-01-18T12:19:03.035Z,17.6
2023-01-18T12:24:26.299Z,17.6
2023-01-18T12:29:56.395Z,17.3
2023-01-18T12:35:39.864Z,17.3
2023-01-18T12:41:05.607Z,17.3
2023-01-18T12:46:28.518Z,16.6
2023-01-18T12:51:51.961Z,17.4
2023-01-18T12:57:25.067Z,16.9
2023-01-18T13:02:49.302Z,16.1
2023-01-18T13:08:15.465Z,15.9
2023-01-18T13:13:38.577Z,15.8
2023-01-18T13:19:01.565Z,15.8
2023-01-18T13:24:23.486Z,15.8
2023-01-18T13:29:47.037Z,15.7
2023-01-18T13:35:36.997Z,15.6
2023-01-18T13:41:20.850Z,15.6
2023-01-18T13:46:44.508Z,15.6
2023-01-18T13:52:24.351Z,15.6
2023-01-18T13:57:49.790Z,15.6
2023-01-18T14:03:13.703Z,15.7
2023-01-18T14:08:37.249Z,15.8
2023-01-18T14:14:01.482Z,15.8
2023-01-18T14:19:43.337Z,15.7
2023-01-18T14:25:05.707Z,15.6
2023-01-18T14:30:28.349Z,15.4
2023-01-18T14:35:52.298Z,15.4
2023-01-18T14:41:26.419Z,15.3
2023-01-18T14:46:43.797Z,15.2
2023-01-18T14:52:14.502Z,15.3
2023-01-18T14:57:37.283Z,15.1
2023-01-18T15:03:01.513Z,15.1
2023-01-18T15:08:09.004Z,15.2
2023-01-18T15:13:16.479Z,15.3
2023-01-18T15:18:08.669Z,15.1
2023-01-18T15:23:32.136Z,15
2023-01-18T15:29:08.880Z,15.1
2023-01-18T15:34:33.310Z,15.1
2023-01-18T15:39:56.171Z,14.8
2023-01-18T15:45:18.566Z,15.1
2023-01-18T15:50:26.014Z,14.9
2023-01-18T15:55:48.959Z,14.9
2023-01-18T16:01:12.612Z,14.6
2023-01-18T16:06:36.272Z,14.6
2023-01-18T16:12:15.343Z,14.5
2023-01-18T16:17:37.639Z,14.4
2023-01-18T16:23:00.380Z,14.4
2023-01-18T16:28:23.057Z,14.1
2023-01-18T16:33:47.821Z,14.3
2023-01-18T16:39:18.640Z,14.3
2023-01-18T16:44:55.569Z,14.4
2023-01-18T16:50:19.496Z,14.4
2023-01-18T16:55:42.346Z,14.1
2023-01-18T17:01:05.135Z,13.4
2023-01-18T17:06:28.362Z,13.4
2023-01-18T17:11:58.215Z,14
2023-01-18T17:17:24.707Z,14
2023-01-18T17:22:47.803Z,14.5
2023-01-18T17:28:10.478Z,14.9
2023-01-18T17:33:38.837Z,14.6
2023-01-18T17:39:16.250Z,14.6
2023-01-18T17:45:48.723Z,14.6
2023-01-18T17:51:18.072Z,14.5
2023-01-18T17:56:41.969Z,14.7
2023-01-18T18:02:06.263Z,14.5
2023-01-18T18:07:45.217Z,14.9
2023-01-18T18:13:09.272Z,14.6
2023-01-18T18:18:55.981Z,13.8
2023-01-18T18:24:06.474Z,14
2023-01-18T18:29:39.760Z,13.8
2023-01-18T18:35:12.064Z,13.6
2023-01-18T18:40:43.311Z,13.4
2023-01-18T18:46:12.987Z,13.3
2023-01-18T18:51:40.284Z,13.8
2023-01-18T18:56:56.922Z,13.9
2023-01-18T19:02:22.295Z,13.8
2023-01-18T19:07:47.213Z,13.8
2023-01-18T19:13:03.287Z,13.4
2023-01-18T19:18:37.551Z,12.9
2023-01-18T19:24:02.430Z,13.1
2023-01-18T19:29:26.805Z,13.1
2023-01-18T19:34:51.699Z,13
2023-01-18T19:40:29.253Z,12.7
2023-01-18T19:46:01.271Z,12.6
2023-01-18T19:51:21.035Z,12.3
2023-01-18T19:56:40.443Z,11.9
2023-01-18T20:02:07.746Z,12
2023-01-18T20:07:18.753Z,12.1
2023-01-18T20:12:37.670Z,11.7
2023-01-18T20:17:53.431Z,12.3
2023-01-18T20:23:25.957Z,12
2023-01-18T20:29:02.134Z,11.8
2023-01-18T20:34:35.602Z,11.6
2023-01-18T20:40:00.138Z,11.8
2023-01-18T20:45:24.053Z,11.6
2023-01-18T20:50:28.349Z,11.9
2023-01-18T20:55:37.114Z,11.9
2023-01-18T21:01:18.278Z,11.4
2023-01-18T21:06:28.320Z,11.4
2023-01-18T21:16:44.978Z,11.5
2023-01-18T21:21:52.522Z,11.1
2023-01-18T21:27:15.290Z,11.3
2023-01-18T21:32:38.176Z,12.2
2023-01-18T21:38:01.671Z,11.8
2023-01-18T21:43:24.891Z,12.1
2023-01-18T21:48:48.393Z,12.7
2023-01-18T21:54:36.567Z,11.9
2023-01-18T22:00:00.153Z,11.8
2023-01-18T22:05:23.896Z,12.1
2023-01-18T22:10:55.248Z,11.7
2023-01-18T22:16:17.490Z,14.8
2023-01-18T22:21:24.873Z,14.5
2023-01-18T22:26:33.765Z,14.2
2023-01-18T22:31:57.740Z,14.2
2023-01-18T22:37:20.660Z,15
2023-01-18T22:42:43.123Z,15
2023-01-18T22:48:06.068Z,15
2023-01-18T22:53:28.603Z,15.1
2023-01-18T22:58:51.243Z,14.6
2023-01-18T23:03:58.877Z,14.9
2023-01-18T23:09:07.253Z,14.5
2023-01-18T23:14:14.618Z,14.6
2023-01-18T23:19:22.141Z,14.6
2023-01-18T23:24:44.529Z,14.5
2023-01-18T23:30:06.995Z,14.6
2023-01-18T23:34:58.921Z,14.5
2023-01-18T23:40:06.331Z,14.3
2023-01-18T23:45:29.125Z,14.2
2023-01-18T23:50:52.951Z,14.3
2023-01-18T23:56:17.633Z,14.4
